createdAt,value
2022-11-16T00:04:38.849Z,-0.2
2022-11-16T00:09:45.922Z,-0.1
2022-11-16T00:15:22.821Z,-0.1
2022-11-16T00:20:44.386Z,-0.1
2022-11-16T00:26:20.965Z,0.1
2022-11-16T00:31:43.341Z,0.1
2022-11-16T00:37:05.621Z,0.1
2022-11-16T00:42:27.419Z,0.2
2022-11-16T00:48:04.212Z,0.2
2022-11-16T00:53:42.223Z,0.3
2022-11-16T00:59:18.786Z,0.2
2022-11-16T01:04:09.572Z,0.3
2022-11-16T01:09:48.267Z,0.2
2022-11-16T01:15:09.649Z,0.1
2022-11-16T01:20:47.659Z,0.1
2022-11-16T01:26:09.956Z,-0.1
2022-11-16T01:31:46.287Z,-0.2
2022-11-16T01:37:23.360Z,-0.3
2022-11-16T01:43:01.652Z,-0.4
2022-11-16T01:48:38.792Z,-0.4
2022-11-16T01:53:45.397Z,-0.5
2022-11-16T01:58:36.287Z,-0.5
2022-11-16T02:03:58.443Z,-0.5
2022-11-16T02:09:35.475Z,-0.4
2022-11-16T02:14:41.444Z,-0.4
2022-11-16T02:20:19.377Z,-0.4
2022-11-16T02:25:56.214Z,-0.3
2022-11-16T02:31:33.480Z,-0.3
2022-11-16T02:37:09.941Z,-0.2
2022-11-16T02:42:32.667Z,-0.1
2022-11-16T02:47:53.350Z,-0.1
2022-11-16T02:53:00.008Z,0
2022-11-16T02:58:37.220Z,0.1
2022-11-16T03:04:17.673Z,0.1
2022-11-16T03:09:54.230Z,0.2
2022-11-16T03:15:31.256Z,0.3
2022-11-16T03:21:09.410Z,0.4
2022-11-16T03:26:45.751Z,0.4
2022-11-16T03:32:09.080Z,0.5
2022-11-16T03:37:46.238Z,0.6
2022-11-16T03:43:07.350Z,0.6
2022-11-16T03:48:29.421Z,0.6
2022-11-16T03:53:51.371Z,0.7
2022-11-16T03:59:01.336Z,0.8
2022-11-16T04:04:23.325Z,0.8
2022-11-16T04:10:01.417Z,0.8
2022-11-16T04:15:38.508Z,0.9
2022-11-16T04:21:14.333Z,0.9
2022-11-16T04:26:36.193Z,0.9
2022-11-16T04:32:13.332Z,1.1
2022-11-16T04:37:51.023Z,1.1
2022-11-16T04:43:28.413Z,1.1
2022-11-16T04:48:50.628Z,1.2
2022-11-16T04:54:27.470Z,1.2
2022-11-16T04:59:18.755Z,1.3
2022-11-16T05:04:47.153Z,1.3
2022-11-16T05:10:11.690Z,1.4
2022-11-16T05:15:33.674Z,1.4
2022-11-16T05:20:55.071Z,1.4
2022-11-16T05:26:16.984Z,1.5
2022-11-16T05:31:24.204Z,1.5
2022-11-16T05:36:30.398Z,1.6
2022-11-16T05:41:52.352Z,1.6
2022-11-16T05:47:28.581Z,1.7
2022-11-16T05:53:06.267Z,1.8
2022-11-16T05:58:27.904Z,1.9
2022-11-16T06:03:49.970Z,1.9
2022-11-16T06:09:29.122Z,2.1
2022-11-16T06:15:05.659Z,2.2
2022-11-16T06:21:02.435Z,2.3
2022-11-16T06:26:40.295Z,2.4
2022-11-16T06:32:07.248Z,2.6
2022-11-16T06:37:53.044Z,2.9
2022-11-16T06:43:30.737Z,3.1
2022-11-16T06:49:08.446Z,3.4
2022-11-16T06:55:48.075Z,3.8
2022-11-16T07:01:29.205Z,4.3
2022-11-16T07:07:06.824Z,4.9
2022-11-16T07:12:50.285Z,5.5
2022-11-16T07:18:31.763Z,6.3
2022-11-16T07:23:38.348Z,6.9
2022-11-16T07:29:22.534Z,7.4
2022-11-16T07:35:00.400Z,7.9
2022-11-16T07:40:38.611Z,8.5
2022-11-16T07:46:46.878Z,9.2
2022-11-16T07:52:25.557Z,10.3
2022-11-16T07:58:09.427Z,11.4
2022-11-16T08:03:53.485Z,12.6
2022-11-16T08:09:32.906Z,13.8
2022-11-16T08:14:55.353Z,14.9
2022-11-16T08:20:35.274Z,16.1
2022-11-16T08:26:16.463Z,17.4
2022-11-16T08:37:24.965Z,19.9
2022-11-16T08:48:37.684Z,21.9
2022-11-16T08:55:38.621Z,22.6
2022-11-16T09:01:17.823Z,23.4
2022-11-16T09:06:56.080Z,23.9
2022-11-16T09:19:38.593Z,26.2
2022-11-16T09:25:17.353Z,28.4
2022-11-16T09:30:56.358Z,31.9
2022-11-16T09:36:19.649Z,36.6
2022-11-16T09:44:01.801Z,48.4
2022-11-16T09:49:51.289Z,57
2022-11-16T09:56:54.670Z,56.6
2022-11-16T10:02:41.335Z,42.4
2022-11-16T10:08:25.455Z,52.6
2022-11-16T10:14:04.266Z,62.7
2022-11-16T10:19:42.489Z,58
2022-11-16T10:25:22.228Z,51.3
2022-11-16T10:30:48.823Z,53.3
2022-11-16T10:36:19.560Z,54.5
2022-11-16T10:42:03.292Z,55.5
2022-11-16T10:47:14.400Z,55.9
2022-11-16T10:52:57.200Z,55.9
2022-11-16T10:58:42.750Z,51
2022-11-16T11:04:28.839Z,50.4
2022-11-16T11:10:10.460Z,53.7
2022-11-16T11:15:56.976Z,62.3
2022-11-16T11:21:36.758Z,58.1
2022-11-16T11:27:51.043Z,51.4
2022-11-16T11:33:36.452Z,49.4
2022-11-16T11:46:47.502Z,45.6
2022-11-16T11:53:18.805Z,42.1
2022-11-16T11:58:45.935Z,38.7
2022-11-16T12:04:29.825Z,35.9
2022-11-16T12:09:54.014Z,33.9
2022-11-16T12:15:39.595Z,31.8
2022-11-16T12:21:17.725Z,30
2022-11-16T12:27:03.464Z,28.4
2022-11-16T12:32:44.309Z,27.1
2022-11-16T12:38:26.189Z,26.3
2022-11-16T12:44:05.675Z,25.7
2022-11-16T12:49:47.490Z,25.1
2022-11-16T12:56:03.874Z,24.7
2022-11-16T13:01:27.045Z,24.3
2022-11-16T13:07:10.599Z,24.2
2022-11-16T13:12:52.637Z,24.1
2022-11-16T13:18:59.562Z,23.8
2022-11-16T13:24:44.157Z,23.3
2022-11-16T13:30:23.158Z,23
2022-11-16T13:36:08.460Z,22.4
2022-11-16T13:41:46.885Z,22
2022-11-16T13:48:06.086Z,21.5
2022-11-16T13:55:36.273Z,20.9
2022-11-16T14:01:18.527Z,20.3
2022-11-16T14:07:00.445Z,19.7
2022-11-16T14:12:25.704Z,19.2
2022-11-16T14:17:55.573Z,18.8
2022-11-16T14:23:33.895Z,18.4
2022-11-16T14:29:16.284Z,17.9
2022-11-16T14:34:59.590Z,17.4
2022-11-16T14:46:13.167Z,16.5
2022-11-16T14:51:52.931Z,16.1
2022-11-16T14:57:31.458Z,15.6
2022-11-16T15:03:17.515Z,15.1
2022-11-16T15:08:41.144Z,14.6
2022-11-16T15:14:03.299Z,14.3
2022-11-16T15:19:47.002Z,13.8
2022-11-16T15:25:22.693Z,13.4
2022-11-16T15:30:51.308Z,13
2022-11-16T15:36:34.351Z,12.6
2022-11-16T15:42:19.726Z,12.2
2022-11-16T15:48:24.865Z,11.8
2022-11-16T15:53:37.364Z,11.4
2022-11-16T15:59:00.770Z,11.1
2022-11-16T16:04:39.427Z,10.8
2022-11-16T16:10:02.447Z,10.6
2022-11-16T16:15:09.856Z,10.3
2022-11-16T16:20:38.129Z,10.1
2022-11-16T16:26:23.159Z,9.9
2022-11-16T16:31:30.335Z,9.8
2022-11-16T16:36:57.597Z,9.7
2022-11-16T16:42:20.930Z,9.5
2022-11-16T16:48:04.146Z,9.4
2022-11-16T16:53:35.240Z,9.3
2022-11-16T16:58:47.426Z,9.3
2022-11-16T17:04:17.214Z,9.1
2022-11-16T17:09:45.203Z,9.1
2022-11-16T17:15:15.130Z,9
2022-11-16T17:20:45.416Z,8.9
2022-11-16T17:26:09.369Z,8.8
2022-11-16T17:31:50.037Z,8.8
2022-11-16T17:37:01.922Z,8.7
2022-11-16T17:42:41.885Z,8.6
2022-11-16T17:48:24.091Z,8.6
2022-11-16T17:53:37.490Z,8.5
2022-11-16T17:59:26.503Z,8.5
2022-11-16T18:05:07.308Z,8.4
2022-11-16T18:10:52.889Z,8.4
2022-11-16T18:16:40.942Z,8.4
2022-11-16T18:22:20.066Z,8.3
2022-11-16T18:27:58.532Z,8.3
2022-11-16T18:33:37.186Z,8.3
2022-11-16T18:38:44.997Z,8.3
2022-11-16T18:43:57.092Z,8.3
2022-11-16T18:49:35.164Z,8.3
2022-11-16T18:55:18.476Z,8.2
2022-11-16T19:01:12.307Z,8.3
2022-11-16T19:06:53.367Z,8.2
2022-11-16T19:12:22.934Z,8.2
2022-11-16T19:18:38.146Z,8.2
2022-11-16T19:24:01.751Z,8.2
2022-11-16T19:29:25.578Z,8.2
2022-11-16T19:35:07.461Z,8.2
2022-11-16T19:40:29.083Z,8.1
2022-11-16T19:45:52.071Z,8.2
2022-11-16T19:51:37.791Z,8.2
2022-11-16T19:57:00.873Z,8.1
2022-11-16T20:02:40.373Z,8.1
2022-11-16T20:13:41.261Z,8.1
2022-11-16T20:19:19.786Z,8.1
2022-11-16T20:24:58.381Z,8.1
2022-11-16T20:30:43.044Z,8.1
2022-11-16T20:36:06.069Z,8.1
2022-11-16T20:41:44.595Z,8.1
2022-11-16T20:46:53.059Z,8.1
2022-11-16T20:52:31.509Z,8.1
2022-11-16T20:58:17.520Z,8.1
2022-11-16T21:03:59.329Z,8
2022-11-16T21:09:38.511Z,8.1
2022-11-16T21:15:19.501Z,8.1
2022-11-16T21:21:32.136Z,8
2022-11-16T21:27:10.803Z,8
2022-11-16T21:32:40.003Z,8
2022-11-16T21:38:22.547Z,8
2022-11-16T21:44:01.535Z,8
2022-11-16T21:49:08.420Z,8.1
2022-11-16T21:55:20.523Z,8
2022-11-16T22:00:43.603Z,8.1
2022-11-16T22:06:27.942Z,8.1
2022-11-16T22:11:50.768Z,8.1
2022-11-16T22:17:28.875Z,8.1
2022-11-16T22:22:51.824Z,8.1
2022-11-16T22:28:47.855Z,8.1
2022-11-16T22:34:30.203Z,8.1
2022-11-16T22:40:10.407Z,8.1
2022-11-16T22:45:50.934Z,8.1
2022-11-16T22:51:31.386Z,8.1
2022-11-16T22:56:53.815Z,8.1
2022-11-16T23:02:16.723Z,8.1
2022-11-16T23:07:55.706Z,8.1
2022-11-16T23:13:24.495Z,8.1
2022-11-16T23:19:01.972Z,8.1
2022-11-16T23:24:43.788Z,8.1
2022-11-16T23:30:28.585Z,8.1
2022-11-16T23:36:07.258Z,8.1
2022-11-16T23:41:45.768Z,8.1
2022-11-16T23:47:07.896Z,8.1
2022-11-16T23:52:30.552Z,8.1
2022-11-16T23:57:53.799Z,8.1
